createdAt,value
2022-12-08T00:01:14.012Z,99252.25
2022-12-08T00:03:41.291Z,99253.00
2022-12-08T00:06:41.229Z,99240.09
2022-12-08T00:09:22.515Z,99236.88
2022-12-08T00:11:57.531Z,99256.41
2022-12-08T00:14:30.078Z,99264.09
2022-12-08T00:16:57.547Z,99265.84
2022-12-08T00:19:24.881Z,99261.53
2022-12-08T00:21:52.320Z,99258.88
2022-12-08T00:24:19.462Z,99242.72
2022-12-08T00:26:46.869Z,99245.38
2022-12-08T00:29:17.321Z,99252.13
2022-12-08T00:31:44.713Z,99250.44
2022-12-08T00:34:15.548Z,99264.09
2022-12-08T00:36:42.780Z,99265.13
2022-12-08T00:39:10.759Z,99269.25
2022-12-08T00:41:55.897Z,99264.13
2022-12-08T00:44:22.557Z,99267.47
2022-12-08T00:46:49.493Z,99270.00
2022-12-08T00:49:16.944Z,99258.06
2022-12-08T00:51:44.048Z,99260.56
2022-12-08T00:54:11.726Z,99262.50
2022-12-08T00:56:38.512Z,99260.84
2022-12-08T00:59:07.033Z,99270.09
2022-12-08T01:01:34.869Z,99280.50
2022-12-08T01:04:10.225Z,99264.91
2022-12-08T01:06:36.919Z,99272.66
2022-12-08T01:09:05.251Z,99270.09
2022-12-08T01:11:32.642Z,99276.16
2022-12-08T01:13:59.380Z,99273.66
2022-12-08T01:16:29.235Z,99271.13
2022-12-08T01:18:57.637Z,99281.50
2022-12-08T01:21:24.406Z,99284.03
2022-12-08T01:23:51.250Z,99280.47
2022-12-08T01:26:19.181Z,99279.69
2022-12-08T01:28:46.910Z,99290.91
2022-12-08T01:31:16.874Z,99284.81
2022-12-08T01:33:43.950Z,99277.19
2022-12-08T01:36:23.519Z,99273.63
2022-12-08T01:38:51.101Z,99300.22
2022-12-08T01:41:21.123Z,99305.41
2022-12-08T01:44:02.587Z,99303.94
2022-12-08T01:46:31.888Z,99312.44
2022-12-08T01:49:23.380Z,99314.13
2022-12-08T01:51:55.588Z,99320.13
2022-12-08T01:54:24.106Z,99315.88
2022-12-08T01:57:08.490Z,99327.81
2022-12-08T01:59:40.347Z,99325.19
2022-12-08T02:02:08.610Z,99317.47
2022-12-08T02:04:35.405Z,99312.41
2022-12-08T02:07:07.823Z,99324.44
2022-12-08T02:09:36.008Z,99318.44
2022-12-08T02:12:02.726Z,99330.44
2022-12-08T02:14:29.487Z,99319.13
2022-12-08T02:17:14.319Z,99315.72
2022-12-08T02:19:55.075Z,99311.38
2022-12-08T02:22:59.380Z,99318.19
2022-12-08T02:25:55.045Z,99316.38
2022-12-08T02:29:00.267Z,99310.47
2022-12-08T02:32:19.965Z,99307.88
2022-12-08T02:35:11.362Z,99317.34
2022-12-08T02:37:55.276Z,99329.38
2022-12-08T02:40:47.536Z,99334.69
2022-12-08T02:43:23.019Z,99332.94
2022-12-08T02:45:55.539Z,99331.38
2022-12-08T02:48:22.307Z,99319.31
2022-12-08T02:50:48.934Z,99339.94
2022-12-08T02:56:05.970Z,99330.63
2022-12-08T02:59:01.589Z,99335.69
2022-12-08T03:01:34.369Z,99336.63
2022-12-08T03:04:36.147Z,99353.84
2022-12-08T03:07:05.782Z,99356.44
2022-12-08T03:10:05.786Z,99334.97
2022-12-08T03:12:56.829Z,99348.59
2022-12-08T03:15:23.709Z,99342.66
2022-12-08T03:17:57.390Z,99338.38
2022-12-08T03:20:26.036Z,99308.41
2022-12-08T03:22:56.245Z,99351.25
2022-12-08T03:25:28.340Z,99351.06
2022-12-08T03:27:55.014Z,99348.53
2022-12-08T03:30:21.733Z,99353.66
2022-12-08T03:33:23.338Z,99348.47
2022-12-08T03:35:51.032Z,99352.78
2022-12-08T03:38:17.965Z,99348.59
2022-12-08T03:41:05.457Z,99360.63
2022-12-08T03:43:32.195Z,99352.09
2022-12-08T03:45:58.932Z,99354.63
2022-12-08T03:48:25.629Z,99361.38
2022-12-08T03:50:52.315Z,99375.97
2022-12-08T03:53:19.033Z,99370.97
2022-12-08T03:55:45.768Z,99377.09
2022-12-08T03:58:12.368Z,99368.38
2022-12-08T04:00:38.958Z,99368.41
2022-12-08T04:03:06.507Z,99377.84
2022-12-08T04:05:33.277Z,99377.84
2022-12-08T04:08:01.240Z,99351.38
2022-12-08T04:10:28.178Z,99385.59
2022-12-08T04:12:54.819Z,99376.97
2022-12-08T04:15:21.534Z,99383.84
2022-12-08T04:17:48.156Z,99365.84
2022-12-08T04:20:14.869Z,99378.66
2022-12-08T04:22:41.516Z,99382.94
2022-12-08T04:25:08.616Z,99392.44
2022-12-08T04:27:35.445Z,99391.63
2022-12-08T04:30:02.647Z,99391.59
2022-12-08T04:32:29.476Z,99376.19
2022-12-08T04:34:56.279Z,99384.78
2022-12-08T04:37:22.956Z,99378.81
2022-12-08T04:39:49.667Z,99389.84
2022-12-08T04:42:16.334Z,99382.19
2022-12-08T04:44:43.057Z,99386.34
2022-12-08T04:47:09.722Z,99380.41
2022-12-08T04:49:36.449Z,99380.47
2022-12-08T04:52:03.491Z,99390.81
2022-12-08T04:54:30.193Z,99378.94
2022-12-08T04:56:56.971Z,99390.25
2022-12-08T04:59:23.691Z,99379.16
2022-12-08T05:01:50.637Z,99395.31
2022-12-08T05:04:17.463Z,99391.78
2022-12-08T05:06:44.116Z,99402.91
2022-12-08T05:09:11.111Z,99403.63
2022-12-08T05:11:48.408Z,99411.34
2022-12-08T05:14:17.064Z,99414.84
2022-12-08T05:16:46.333Z,99416.63
2022-12-08T05:19:14.045Z,99422.56
2022-12-08T05:21:40.758Z,99427.03
2022-12-08T05:24:07.559Z,99428.00
2022-12-08T05:26:34.259Z,99433.19
2022-12-08T05:29:01.004Z,99425.53
2022-12-08T05:31:27.800Z,99431.41
2022-12-08T05:33:58.391Z,99444.22
2022-12-08T05:36:27.722Z,99440.81
2022-12-08T05:38:56.956Z,99448.47
2022-12-08T05:41:23.968Z,99447.72
2022-12-08T05:43:50.853Z,99462.41
2022-12-08T05:46:28.126Z,99437.56
2022-12-08T05:48:54.868Z,99459.03
2022-12-08T05:51:23.986Z,99452.16
2022-12-08T05:53:51.505Z,99447.75
2022-12-08T05:56:18.995Z,99453.81
2022-12-08T05:58:46.266Z,99461.63
2022-12-08T06:01:23.431Z,99462.44
2022-12-08T06:03:50.581Z,99458.16
2022-12-08T06:06:17.648Z,99434.25
2022-12-08T06:08:44.448Z,99465.03
2022-12-08T06:11:18.312Z,99488.94
2022-12-08T06:13:45.334Z,99480.34
2022-12-08T06:16:12.082Z,99476.97
2022-12-08T06:18:38.883Z,99473.50
2022-12-08T06:21:11.885Z,99473.50
2022-12-08T06:23:39.037Z,99468.38
2022-12-08T06:26:13.578Z,99470.03
2022-12-08T06:28:41.402Z,99482.06
2022-12-08T06:31:16.938Z,99493.16
2022-12-08T06:33:43.888Z,99488.88
2022-12-08T06:36:12.889Z,99496.50
2022-12-08T06:38:43.271Z,99498.22
2022-12-08T06:41:11.068Z,99478.63
2022-12-08T06:43:37.939Z,99490.53
2022-12-08T06:46:06.488Z,99504.28
2022-12-08T06:48:33.489Z,99505.97
2022-12-08T06:51:11.412Z,99506.13
2022-12-08T07:05:08.403Z,99508.78
2022-12-08T07:07:35.019Z,99503.50
2022-12-08T07:10:01.881Z,99509.63
2022-12-08T07:12:28.783Z,99492.56
2022-12-08T07:14:55.469Z,99506.25
2022-12-08T07:17:22.121Z,99520.78
2022-12-08T07:19:48.770Z,99518.19
2022-12-08T07:22:15.443Z,99523.19
2022-12-08T07:24:42.110Z,99519.75
2022-12-08T07:27:08.853Z,99524.06
2022-12-08T07:29:35.490Z,99540.38
2022-12-08T07:32:02.171Z,99536.94
2022-12-08T07:34:28.876Z,99534.38
2022-12-08T07:36:55.515Z,99543.81
2022-12-08T07:39:22.142Z,99549.00
2022-12-08T07:41:48.764Z,99543.91
2022-12-08T07:44:15.521Z,99546.44
2022-12-08T07:46:42.280Z,99538.59
2022-12-08T07:49:09.062Z,99542.09
2022-12-08T07:51:35.858Z,99548.94
2022-12-08T07:54:02.581Z,99547.16
2022-12-08T07:56:29.298Z,99549.75
2022-12-08T07:58:55.987Z,99550.63
2022-12-08T08:01:26.921Z,99548.94
2022-12-08T08:03:55.347Z,99554.97
2022-12-08T08:06:22.161Z,99549.84
2022-12-08T08:08:48.898Z,99548.16
2022-12-08T08:11:20.893Z,99552.41
2022-12-08T08:13:48.786Z,99563.75
2022-12-08T08:16:15.563Z,99562.81
2022-12-08T08:18:42.406Z,99566.19
2022-12-08T08:21:43.106Z,99558.44
2022-12-08T08:23:55.961Z,99562.88
2022-12-08T08:26:22.675Z,99570.63
2022-12-08T08:28:50.186Z,99572.28
2022-12-08T08:31:16.981Z,99563.63
2022-12-08T08:33:43.682Z,99573.84
2022-12-08T08:36:11.031Z,99570.47
2022-12-08T08:38:40.430Z,99572.91
2022-12-08T08:41:09.359Z,99557.47
2022-12-08T08:43:38.530Z,99566.16
2022-12-08T08:46:06.405Z,99564.56
2022-12-08T08:48:33.661Z,99571.25
2022-12-08T08:51:07.893Z,99567.91
2022-12-08T08:53:34.592Z,99568.72
2022-12-08T08:56:02.788Z,99553.22
2022-12-08T08:58:29.754Z,99562.53
2022-12-08T09:00:56.570Z,99556.53
2022-12-08T09:03:23.444Z,99560.78
2022-12-08T09:05:50.603Z,99561.69
2022-12-08T09:08:17.819Z,99560.66
2022-12-08T09:10:44.605Z,99555.59
2022-12-08T09:13:11.208Z,99560.75
2022-12-08T09:15:37.886Z,99560.91
2022-12-08T09:18:06.766Z,99547.06
2022-12-08T09:20:34.600Z,99560.91
2022-12-08T09:23:01.449Z,99556.66
2022-12-08T09:25:28.774Z,99560.00
2022-12-08T09:27:55.419Z,99548.22
2022-12-08T09:30:22.267Z,99563.53
2022-12-08T09:32:48.914Z,99548.06
2022-12-08T09:35:15.574Z,99557.44
2022-12-08T09:37:42.364Z,99557.34
2022-12-08T09:40:12.003Z,99554.00
2022-12-08T09:42:59.905Z,99564.31
2022-12-08T09:45:30.353Z,99557.28
2022-12-08T09:48:05.660Z,99561.72
2022-12-08T09:50:39.610Z,99559.09
2022-12-08T09:53:12.652Z,99559.19
2022-12-08T09:55:43.410Z,99560.13
2022-12-08T09:58:18.105Z,99554.59
2022-12-08T10:00:44.861Z,99562.50
2022-12-08T10:03:16.948Z,99556.84
2022-12-08T10:05:50.193Z,99557.56
2022-12-08T10:08:21.625Z,99565.25
2022-12-08T10:11:48.096Z,99559.16
2022-12-08T10:14:14.776Z,99553.28
2022-12-08T10:16:42.868Z,99555.03
2022-12-08T10:19:24.383Z,99549.88
2022-12-08T10:21:51.516Z,99550.75
2022-12-08T10:24:34.688Z,99543.88
2022-12-08T10:27:02.642Z,99554.19
2022-12-08T10:29:29.400Z,99554.09
2022-12-08T10:32:00.062Z,99555.66
2022-12-08T10:34:26.877Z,99540.34
2022-12-08T10:36:56.307Z,99550.81
2022-12-08T10:39:40.848Z,99559.50
2022-12-08T10:42:19.972Z,99556.75
2022-12-08T10:44:59.117Z,99554.22
2022-12-08T10:47:27.297Z,99563.75
2022-12-08T10:50:20.297Z,99561.03
2022-12-08T10:52:55.842Z,99568.63
2022-12-08T10:55:23.627Z,99559.34
2022-12-08T10:57:50.645Z,99560.13
2022-12-08T11:00:24.360Z,99559.31
2022-12-08T11:02:55.463Z,99572.94
2022-12-08T11:05:24.000Z,99566.88
2022-12-08T11:07:53.051Z,99560.78
2022-12-08T11:10:21.461Z,99559.91
2022-12-08T11:12:49.532Z,99555.00
2022-12-08T11:15:18.257Z,99556.53
2022-12-08T11:17:50.108Z,99555.66
2022-12-08T11:20:23.530Z,99549.03
2022-12-08T11:22:55.245Z,99552.44
2022-12-08T11:25:27.124Z,99549.84
2022-12-08T11:27:58.785Z,99548.06
2022-12-08T11:30:29.455Z,99543.69
2022-12-08T11:33:03.792Z,99546.97
2022-12-08T11:35:34.177Z,99546.19
2022-12-08T11:38:22.823Z,99552.38
2022-12-08T11:41:17.065Z,99548.13
2022-12-08T11:43:52.117Z,99543.91
2022-12-08T11:46:25.443Z,99548.34
2022-12-08T11:49:06.010Z,99545.69
2022-12-08T11:51:53.767Z,99548.25
2022-12-08T11:54:30.982Z,99542.22
2022-12-08T11:57:13.047Z,99542.13
2022-12-08T11:59:49.742Z,99531.03
2022-12-08T12:02:25.780Z,99537.78
2022-12-08T12:04:58.402Z,99531.91
2022-12-08T12:07:44.033Z,99534.47
2022-12-08T12:10:13.340Z,99528.50
2022-12-08T12:12:49.893Z,99530.22
2022-12-08T12:15:22.631Z,99524.06
2022-12-08T12:18:04.540Z,99521.50
2022-12-08T12:20:35.492Z,99527.41
2022-12-08T12:23:08.615Z,99521.59
2022-12-08T12:25:36.185Z,99520.66
2022-12-08T12:28:06.282Z,99523.38
2022-12-08T12:30:52.542Z,99524.31
2022-12-08T12:33:19.916Z,99530.25
2022-12-08T12:35:48.311Z,99531.09
2022-12-08T12:38:36.514Z,99544.06
2022-12-08T12:41:04.470Z,99556.94
2022-12-08T12:43:34.195Z,99555.19
2022-12-08T12:46:36.238Z,99555.19
2022-12-08T12:49:39.857Z,99560.38
2022-12-08T12:52:15.620Z,99567.25
2022-12-08T12:54:43.413Z,99568.16
2022-12-08T12:57:12.988Z,99578.47
2022-12-08T13:00:05.696Z,99565.59
2022-12-08T13:02:53.693Z,99568.19
2022-12-08T13:05:30.368Z,99567.22
2022-12-08T13:08:07.144Z,99576.66
2022-12-08T13:10:41.291Z,99574.16
2022-12-08T13:13:10.934Z,99570.75
2022-12-08T13:15:48.953Z,99566.41
2022-12-08T13:18:38.942Z,99566.38
2022-12-08T13:21:08.811Z,99574.97
2022-12-08T13:23:38.491Z,99578.34
2022-12-08T13:26:14.165Z,99571.47
2022-12-08T13:28:59.742Z,99576.72
2022-12-08T13:31:41.678Z,99579.31
2022-12-08T13:34:17.780Z,99583.53
2022-12-08T13:37:12.459Z,99577.56
2022-12-08T13:39:39.110Z,99580.09
2022-12-08T13:42:29.653Z,99580.16
2022-12-08T13:52:59.929Z,99580.09
2022-12-08T13:57:02.737Z,99581.06
2022-12-08T13:59:20.132Z,99592.25
2022-12-08T14:01:49.162Z,99588.81
2022-12-08T14:07:13.203Z,99592.22
2022-12-08T14:09:40.702Z,99593.09
2022-12-08T14:12:22.543Z,99593.97
2022-12-08T14:15:07.786Z,99604.25
2022-12-08T14:17:34.658Z,99594.81
2022-12-08T14:20:04.786Z,99604.25
2022-12-08T14:22:36.163Z,99602.53
2022-12-08T14:25:03.867Z,99607.66
2022-12-08T14:27:34.567Z,99599.09
2022-12-08T14:30:25.635Z,99599.94
2022-12-08T14:32:58.426Z,99610.25
2022-12-08T14:35:32.247Z,99611.97
2022-12-08T14:38:01.555Z,99611.97
2022-12-08T14:40:35.051Z,99617.09
2022-12-08T14:43:07.661Z,99620.53
2022-12-08T14:45:41.076Z,99623.97
2022-12-08T14:48:33.724Z,99621.41
2022-12-08T14:51:03.465Z,99623.97
2022-12-08T14:53:40.257Z,99617.13
2022-12-08T14:56:09.450Z,99613.69
2022-12-08T14:58:36.083Z,99612.81
2022-12-08T15:01:05.297Z,99623.13
2022-12-08T15:03:32.620Z,99633.41
2022-12-08T15:06:07.261Z,99628.28
2022-12-08T15:08:35.177Z,99632.56
2022-12-08T15:11:23.986Z,99635.13
2022-12-08T15:13:52.179Z,99645.44
2022-12-08T15:16:38.119Z,99635.13
2022-12-08T15:19:17.029Z,99641.16
2022-12-08T15:21:44.697Z,99644.56
2022-12-08T15:24:12.645Z,99649.72
2022-12-08T15:26:45.019Z,99654.88
2022-12-08T15:29:20.990Z,99643.69
2022-12-08T15:31:47.913Z,99625.72
2022-12-08T15:34:14.556Z,99633.44
2022-12-08T15:36:43.040Z,99637.69
2022-12-08T15:39:25.949Z,99646.28
2022-12-08T15:41:52.588Z,99641.13
2022-12-08T15:44:19.249Z,99649.72
2022-12-08T15:46:46.022Z,99648.88
2022-12-08T15:49:23.568Z,99654.88
2022-12-08T15:51:53.142Z,99658.31
2022-12-08T15:54:23.233Z,99648.00
2022-12-08T15:57:18.110Z,99654.84
2022-12-08T15:59:39.073Z,99660.88
2022-12-08T16:02:05.771Z,99659.16
2022-12-08T16:07:25.334Z,99663.44
2022-12-08T16:09:52.494Z,99651.41
2022-12-08T16:13:27.242Z,99648.84
2022-12-08T16:18:16.975Z,99646.28
2022-12-08T16:21:07.504Z,99646.31
2022-12-08T16:23:43.084Z,99647.16
2022-12-08T16:27:01.074Z,99643.72
2022-12-08T16:29:07.248Z,99641.13
2022-12-08T16:31:34.041Z,99637.69
2022-12-08T16:34:00.922Z,99645.44
2022-12-08T16:36:27.560Z,99642.84
2022-12-08T16:38:54.231Z,99642.84
2022-12-08T16:41:39.699Z,99643.69
2022-12-08T16:44:06.646Z,99646.28
2022-12-08T16:46:33.756Z,99644.56
2022-12-08T16:49:00.474Z,99639.44
2022-12-08T16:51:27.694Z,99635.13
2022-12-08T16:53:55.741Z,99639.41
2022-12-08T16:56:28.807Z,99628.25
2022-12-08T16:58:58.839Z,99628.25
2022-12-08T17:01:25.619Z,99623.97
2022-12-08T17:04:22.571Z,99631.69
2022-12-08T17:06:39.285Z,99623.13
2022-12-08T17:09:05.975Z,99623.13
2022-12-08T17:11:37.487Z,99623.97
2022-12-08T17:14:09.262Z,99626.53
2022-12-08T17:16:36.077Z,99615.38
2022-12-08T17:19:02.877Z,99617.97
2022-12-08T17:21:29.791Z,99616.25
2022-12-08T17:23:56.553Z,99613.69
2022-12-08T17:26:23.211Z,99617.13
2022-12-08T17:29:05.554Z,99623.13
2022-12-08T17:31:33.305Z,99622.28
2022-12-08T17:34:04.816Z,99617.13
2022-12-08T17:36:31.864Z,99629.13
2022-12-08T17:39:02.001Z,99606.81
2022-12-08T17:41:29.317Z,99595.66
2022-12-08T17:43:56.182Z,99617.97
2022-12-08T17:46:23.460Z,99613.69
2022-12-08T17:48:50.200Z,99605.97
2022-12-08T17:51:16.870Z,99602.53
2022-12-08T17:53:43.779Z,99597.41
2022-12-08T17:56:19.041Z,99597.38
2022-12-08T17:58:51.089Z,99611.09
2022-12-08T18:01:21.154Z,99607.69
2022-12-08T18:03:47.786Z,99608.53
2022-12-08T18:06:14.496Z,99612.81
2022-12-08T18:08:41.208Z,99605.97
2022-12-08T18:11:16.629Z,99606.84
2022-12-08T18:13:43.206Z,99618.84
2022-12-08T18:16:09.919Z,99605.97
2022-12-08T18:18:36.769Z,99612.81
2022-12-08T18:21:03.935Z,99604.25
2022-12-08T18:23:30.701Z,99608.53
2022-12-08T18:25:57.398Z,99621.41
2022-12-08T18:28:24.358Z,99619.69
2022-12-08T18:30:51.265Z,99615.41
2022-12-08T18:33:18.071Z,99607.69
2022-12-08T18:35:44.751Z,99617.13
2022-12-08T18:38:11.361Z,99606.84
2022-12-08T18:40:38.182Z,99613.69
2022-12-08T18:43:04.857Z,99604.22
2022-12-08T18:45:31.574Z,99603.38
2022-12-08T18:47:58.183Z,99605.13
2022-12-08T18:50:24.944Z,99605.09
2022-12-08T18:52:51.622Z,99597.38
2022-12-08T18:55:18.401Z,99593.13
2022-12-08T18:57:45.499Z,99577.66
2022-12-08T19:00:15.228Z,99581.09
2022-12-08T19:02:42.271Z,99566.50
2022-12-08T19:05:11.003Z,99572.53
2022-12-08T19:07:38.146Z,99575.94
2022-12-08T19:10:06.763Z,99577.66
2022-12-08T19:12:33.695Z,99565.66
2022-12-08T19:15:00.309Z,99569.94
2022-12-08T19:17:26.960Z,99573.38
2022-12-08T19:19:53.612Z,99551.94
2022-12-08T19:22:20.253Z,99561.38
2022-12-08T19:24:47.192Z,99579.38
2022-12-08T19:27:13.875Z,99574.22
2022-12-08T19:29:40.545Z,99571.66
2022-12-08T19:32:07.211Z,99569.09
2022-12-08T19:34:33.933Z,99564.78
2022-12-08T19:37:00.522Z,99566.50
2022-12-08T19:39:45.995Z,99569.94
2022-12-08T19:42:36.221Z,99577.66
2022-12-08T19:45:21.954Z,99572.50
2022-12-08T19:47:48.591Z,99572.50
2022-12-08T19:50:34.811Z,99569.09
2022-12-08T19:53:02.504Z,99563.94
2022-12-08T19:55:29.532Z,99557.06
2022-12-08T19:57:57.205Z,99567.34
2022-12-08T20:00:24.285Z,99576.75
2022-12-08T20:02:51.328Z,99575.91
2022-12-08T20:05:18.121Z,99566.47
2022-12-08T20:07:44.916Z,99569.91
2022-12-08T20:10:18.129Z,99569.94
2022-12-08T20:12:44.791Z,99571.59
2022-12-08T20:15:11.688Z,99575.91
2022-12-08T20:17:38.949Z,99570.75
2022-12-08T20:20:07.801Z,99576.75
2022-12-08T20:22:35.131Z,99561.31
2022-12-08T20:25:02.393Z,99568.19
2022-12-08T20:27:29.270Z,99582.78
2022-12-08T20:29:56.004Z,99586.22
2022-12-08T20:32:22.770Z,99575.06
2022-12-08T20:34:49.553Z,99580.22
2022-12-08T20:37:16.331Z,99582.78
2022-12-08T20:39:42.988Z,99588.78
2022-12-08T20:42:13.204Z,99593.09
2022-12-08T20:44:43.390Z,99599.06
2022-12-08T20:47:11.513Z,99599.09
2022-12-08T20:49:38.683Z,99599.94
2022-12-08T20:52:05.848Z,99613.66
2022-12-08T20:54:32.807Z,99589.66
2022-12-08T20:56:59.660Z,99606.78
2022-12-08T20:59:26.977Z,99602.50
2022-12-08T21:01:54.477Z,99590.50
2022-12-08T21:04:22.250Z,99594.78
2022-12-08T21:06:49.976Z,99598.22
2022-12-08T21:09:16.762Z,99598.22
2022-12-08T21:11:43.911Z,99570.78
2022-12-08T21:14:10.814Z,99592.25
2022-12-08T21:16:38.008Z,99589.66
2022-12-08T21:19:06.147Z,99586.25
2022-12-08T21:21:33.054Z,99587.94
2022-12-08T21:24:00.038Z,99583.69
2022-12-08T21:26:27.004Z,99583.66
2022-12-08T21:28:54.997Z,99589.66
2022-12-08T21:31:22.261Z,99594.81
2022-12-08T21:33:49.190Z,99598.22
2022-12-08T21:36:19.397Z,99606.81
2022-12-08T21:38:47.276Z,99602.50
2022-12-08T21:41:16.851Z,99600.81
2022-12-08T21:43:43.745Z,99589.66
2022-12-08T21:46:19.195Z,99587.94
2022-12-08T21:48:46.580Z,99595.66
2022-12-08T21:51:13.356Z,99591.38
2022-12-08T21:53:40.174Z,99578.50
2022-12-08T21:56:10.401Z,99586.22
2022-12-08T21:58:37.302Z,99587.94
2022-12-08T22:01:08.343Z,99587.94
2022-12-08T22:03:35.747Z,99581.91
2022-12-08T22:06:06.758Z,99592.22
2022-12-08T22:08:33.541Z,99584.53
2022-12-08T22:11:00.581Z,99564.78
2022-12-08T22:13:27.369Z,99569.03
2022-12-08T22:15:58.059Z,99569.94
2022-12-08T22:18:25.153Z,99564.78
2022-12-08T22:20:52.351Z,99566.50
2022-12-08T22:23:19.450Z,99557.94
2022-12-08T22:25:46.301Z,99553.63
2022-12-08T22:28:13.002Z,99536.47
2022-12-08T22:30:39.777Z,99555.38
2022-12-08T22:33:06.682Z,99541.66
2022-12-08T22:35:33.405Z,99539.94
2022-12-08T22:38:00.108Z,99530.47
2022-12-08T22:40:26.790Z,99527.91
2022-12-08T22:42:53.429Z,99535.63
2022-12-08T22:45:20.092Z,99529.63
2022-12-08T22:47:46.763Z,99512.50
2022-12-08T22:50:13.759Z,99495.34
2022-12-08T22:52:40.401Z,99504.75
2022-12-08T22:55:07.715Z,99479.03
2022-12-08T22:57:34.362Z,99485.91
2022-12-08T23:00:01.011Z,99484.22
2022-12-08T23:02:27.812Z,99479.03
2022-12-08T23:04:57.919Z,99469.63
2022-12-08T23:07:24.768Z,99479.06
2022-12-08T23:09:52.400Z,99479.06
2022-12-08T23:12:19.141Z,99469.63
2022-12-08T23:14:46.066Z,99466.22
2022-12-08T23:17:13.187Z,99465.31
2022-12-08T23:19:40.386Z,99467.06
2022-12-08T23:22:07.506Z,99464.47
2022-12-08T23:24:34.413Z,99459.34
2022-12-08T23:27:01.181Z,99454.19
2022-12-08T23:29:27.801Z,99457.59
2022-12-08T23:31:54.710Z,99464.47
2022-12-08T23:34:21.468Z,99479.91
2022-12-08T23:36:48.140Z,99480.78
2022-12-08T23:39:15.233Z,99476.50
2022-12-08T23:41:41.950Z,99478.22
2022-12-08T23:44:09.304Z,99486.78
2022-12-08T23:46:36.200Z,99476.50
2022-12-08T23:49:03.036Z,99480.78
2022-12-08T23:51:30.133Z,99478.22
2022-12-08T23:53:57.125Z,99467.94
2022-12-08T23:56:29.863Z,99461.06
2022-12-08T23:58:57.115Z,99447.38
